sensor_id;sensor_type;location;lat;lon;timestamp;temperature;humidity
75387;DHT22;63966;47.914;22.266;2023-07-22T00:02:06;18.45;91.16
75387;DHT22;63966;47.914;22.266;2023-07-22T00:05:10;18.36;91.46
75387;DHT22;63966;47.914;22.266;2023-07-22T00:08:14;18.30;91.56
75387;DHT22;63966;47.914;22.266;2023-07-22T00:11:18;18.33;91.56
75387;DHT22;63966;47.914;22.266;2023-07-22T00:14:23;18.34;91.51
75387;DHT22;63966;47.914;22.266;2023-07-22T00:17:26;18.36;91.46
75387;DHT22;63966;47.914;22.266;2023-07-22T00:20:29;18.31;91.73
75387;DHT22;63966;47.914;22.266;2023-07-22T00:23:34;18.27;92.11
75387;DHT22;63966;47.914;22.266;2023-07-22T00:26:38;18.18;91.83
75387;DHT22;63966;47.914;22.266;2023-07-22T00:29:41;18.27;92.24
75387;DHT22;63966;47.914;22.266;2023-07-22T00:32:45;18.34;91.75
75387;DHT22;63966;47.914;22.266;2023-07-22T00:35:49;18.37;91.48
75387;DHT22;63966;47.914;22.266;2023-07-22T00:38:56;18.37;91.78
75387;DHT22;63966;47.914;22.266;2023-07-22T00:41:59;18.38;91.73
75387;DHT22;63966;47.914;22.266;2023-07-22T00:45:04;18.40;91.80
75387;DHT22;63966;47.914;22.266;2023-07-22T00:48:09;18.40;91.92
75387;DHT22;63966;47.914;22.266;2023-07-22T00:51:13;18.34;91.89
75387;DHT22;63966;47.914;22.266;2023-07-22T00:54:17;18.28;92.20
75387;DHT22;63966;47.914;22.266;2023-07-22T00:57:21;18.26;92.37
75387;DHT22;63966;47.914;22.266;2023-07-22T01:00:28;18.20;92.91
75387;DHT22;63966;47.914;22.266;2023-07-22T01:03:32;18.27;92.97
75387;DHT22;63966;47.914;22.266;2023-07-22T01:06:35;18.44;91.99
75387;DHT22;63966;47.914;22.266;2023-07-22T01:09:40;18.45;92.50
75387;DHT22;63966;47.914;22.266;2023-07-22T01:12:44;18.68;91.09
75387;DHT22;63966;47.914;22.266;2023-07-22T01:15:48;18.71;90.77
75387;DHT22;63966;47.914;22.266;2023-07-22T01:18:54;18.65;90.59
75387;DHT22;63966;47.914;22.266;2023-07-22T01:22:00;18.48;91.04
75387;DHT22;63966;47.914;22.266;2023-07-22T01:25:05;18.45;91.56
75387;DHT22;63966;47.914;22.266;2023-07-22T01:28:10;18.59;90.80
75387;DHT22;63966;47.914;22.266;2023-07-22T01:31:17;18.58;90.68
75387;DHT22;63966;47.914;22.266;2023-07-22T01:34:21;18.48;91.14
75387;DHT22;63966;47.914;22.266;2023-07-22T01:37:25;18.55;90.79
75387;DHT22;63966;47.914;22.266;2023-07-22T01:40:28;18.52;91.29
75387;DHT22;63966;47.914;22.266;2023-07-22T01:43:31;18.57;90.63
75387;DHT22;63966;47.914;22.266;2023-07-22T01:46:35;18.52;90.85
75387;DHT22;63966;47.914;22.266;2023-07-22T01:49:39;18.47;91.19
75387;DHT22;63966;47.914;22.266;2023-07-22T01:52:44;18.45;91.47
75387;DHT22;63966;47.914;22.266;2023-07-22T01:55:50;18.57;91.06
75387;DHT22;63966;47.914;22.266;2023-07-22T01:58:53;18.47;91.65
75387;DHT22;63966;47.914;22.266;2023-07-22T02:01:59;18.38;91.91
75387;DHT22;63966;47.914;22.266;2023-07-22T02:05:02;18.33;92.27
75387;DHT22;63966;47.914;22.266;2023-07-22T02:08:06;18.30;92.04
75387;DHT22;63966;47.914;22.266;2023-07-22T02:11:11;18.30;92.28
75387;DHT22;63966;47.914;22.266;2023-07-22T02:14:15;18.33;91.95
75387;DHT22;63966;47.914;22.266;2023-07-22T02:17:18;18.26;92.73
75387;DHT22;63966;47.914;22.266;2023-07-22T02:20:23;18.37;92.51
75387;DHT22;63966;47.914;22.266;2023-07-22T02:23:29;18.24;92.87
75387;DHT22;63966;47.914;22.266;2023-07-22T02:26:34;18.09;93.44
75387;DHT22;63966;47.914;22.266;2023-07-22T02:29:37;17.96;93.74
75387;DHT22;63966;47.914;22.266;2023-07-22T02:32:41;17.87;94.16
75387;DHT22;63966;47.914;22.266;2023-07-22T02:35:46;17.83;94.35
75387;DHT22;63966;47.914;22.266;2023-07-22T02:38:50;17.76;94.55
75387;DHT22;63966;47.914;22.266;2023-07-22T02:41:53;17.68;94.70
75387;DHT22;63966;47.914;22.266;2023-07-22T02:44:57;17.78;94.52
75387;DHT22;63966;47.914;22.266;2023-07-22T02:48:00;17.65;94.59
75387;DHT22;63966;47.914;22.266;2023-07-22T02:51:07;17.72;94.45
75387;DHT22;63966;47.914;22.266;2023-07-22T02:54:11;17.66;94.38
75387;DHT22;63966;47.914;22.266;2023-07-22T02:57:14;17.58;94.71
75387;DHT22;63966;47.914;22.266;2023-07-22T03:00:19;17.61;94.79
75387;DHT22;63966;47.914;22.266;2023-07-22T03:03:27;17.66;94.77
75387;DHT22;63966;47.914;22.266;2023-07-22T03:06:30;17.75;94.78
75387;DHT22;63966;47.914;22.266;2023-07-22T03:09:34;17.82;94.68
75387;DHT22;63966;47.914;22.266;2023-07-22T03:12:38;17.96;94.32
75387;DHT22;63966;47.914;22.266;2023-07-22T03:15:41;18.11;93.99
75387;DHT22;63966;47.914;22.266;2023-07-22T03:18:48;18.10;93.44
75387;DHT22;63966;47.914;22.266;2023-07-22T03:21:52;18.09;93.43
75387;DHT22;63966;47.914;22.266;2023-07-22T03:25:02;18.17;93.36
75387;DHT22;63966;47.914;22.266;2023-07-22T03:28:10;18.13;93.38
75387;DHT22;63966;47.914;22.266;2023-07-22T03:31:17;18.11;93.36
75387;DHT22;63966;47.914;22.266;2023-07-22T03:34:23;18.04;93.47
75387;DHT22;63966;47.914;22.266;2023-07-22T03:37:26;18.03;93.42
75387;DHT22;63966;47.914;22.266;2023-07-22T03:40:30;17.97;93.55
75387;DHT22;63966;47.914;22.266;2023-07-22T03:43:33;18.04;93.55
75387;DHT22;63966;47.914;22.266;2023-07-22T03:46:37;18.13;93.22
75387;DHT22;63966;47.914;22.266;2023-07-22T03:49:41;18.18;92.75
75387;DHT22;63966;47.914;22.266;2023-07-22T03:52:44;18.21;92.56
75387;DHT22;63966;47.914;22.266;2023-07-22T03:55:47;18.10;92.82
75387;DHT22;63966;47.914;22.266;2023-07-22T03:58:51;18.13;93.18
75387;DHT22;63966;47.914;22.266;2023-07-22T04:01:55;18.20;92.50
75387;DHT22;63966;47.914;22.266;2023-07-22T04:05:01;18.13;92.66
75387;DHT22;63966;47.914;22.266;2023-07-22T04:08:05;18.14;92.66
75387;DHT22;63966;47.914;22.266;2023-07-22T04:11:09;18.49;91.58
75387;DHT22;63966;47.914;22.266;2023-07-22T04:14:12;20.16;87.02
75387;DHT22;63966;47.914;22.266;2023-07-22T04:17:16;20.64;83.96
75387;DHT22;63966;47.914;22.266;2023-07-22T04:20:20;20.39;83.88
75387;DHT22;63966;47.914;22.266;2023-07-22T04:23:24;20.54;83.60
75387;DHT22;63966;47.914;22.266;2023-07-22T04:26:27;20.81;83.08
75387;DHT22;63966;47.914;22.266;2023-07-22T04:29:31;21.02;81.65
75387;DHT22;63966;47.914;22.266;2023-07-22T04:32:42;22.38;77.15
75387;DHT22;63966;47.914;22.266;2023-07-22T04:35:46;23.51;74.72
75387;DHT22;63966;47.914;22.266;2023-07-22T04:38:49;24.27;71.79
75387;DHT22;63966;47.914;22.266;2023-07-22T04:41:52;25.32;68.05
75387;DHT22;63966;47.914;22.266;2023-07-22T04:44:56;25.66;66.95
75387;DHT22;63966;47.914;22.266;2023-07-22T04:48:00;25.78;65.41
75387;DHT22;63966;47.914;22.266;2023-07-22T04:51:07;25.83;65.91
75387;DHT22;63966;47.914;22.266;2023-07-22T04:54:12;25.94;65.20
75387;DHT22;63966;47.914;22.266;2023-07-22T04:57:16;25.12;67.54
75387;DHT22;63966;47.914;22.266;2023-07-22T05:00:20;24.53;70.36
75387;DHT22;63966;47.914;22.266;2023-07-22T05:03:23;23.62;71.66
75387;DHT22;63966;47.914;22.266;2023-07-22T05:06:30;22.60;74.93
75387;DHT22;63966;47.914;22.266;2023-07-22T05:09:33;22.56;75.56
75387;DHT22;63966;47.914;22.266;2023-07-22T05:12:38;22.96;73.52
75387;DHT22;63966;47.914;22.266;2023-07-22T05:15:42;23.14;74.26
75387;DHT22;63966;47.914;22.266;2023-07-22T05:18:46;23.57;72.87
75387;DHT22;63966;47.914;22.266;2023-07-22T05:21:51;24.20;70.70
75387;DHT22;63966;47.914;22.266;2023-07-22T05:24:55;26.00;65.32
75387;DHT22;63966;47.914;22.266;2023-07-22T05:27:59;27.70;59.44
75387;DHT22;63966;47.914;22.266;2023-07-22T05:31:03;27.93;58.54
75387;DHT22;63966;47.914;22.266;2023-07-22T05:34:07;27.75;58.63
75387;DHT22;63966;47.914;22.266;2023-07-22T05:37:11;27.89;58.01
75387;DHT22;63966;47.914;22.266;2023-07-22T05:40:14;27.59;58.42
75387;DHT22;63966;47.914;22.266;2023-07-22T05:43:18;29.09;55.61
75387;DHT22;63966;47.914;22.266;2023-07-22T05:46:22;29.27;55.27
75387;DHT22;63966;47.914;22.266;2023-07-22T05:49:25;30.00;53.19
75387;DHT22;63966;47.914;22.266;2023-07-22T05:52:28;29.94;51.65
75387;DHT22;63966;47.914;22.266;2023-07-22T05:55:33;29.57;53.01
75387;DHT22;63966;47.914;22.266;2023-07-22T05:58:36;29.88;52.00
75387;DHT22;63966;47.914;22.266;2023-07-22T06:01:39;30.91;50.79
75387;DHT22;63966;47.914;22.266;2023-07-22T06:04:44;31.01;49.74
75387;DHT22;63966;47.914;22.266;2023-07-22T06:07:47;30.42;50.07
75387;DHT22;63966;47.914;22.266;2023-07-22T06:10:51;30.71;49.99
75387;DHT22;63966;47.914;22.266;2023-07-22T06:13:54;30.18;51.44
75387;DHT22;63966;47.914;22.266;2023-07-22T06:16:58;31.52;47.88
75387;DHT22;63966;47.914;22.266;2023-07-22T06:20:02;31.56;48.20
75387;DHT22;63966;47.914;22.266;2023-07-22T06:23:05;31.92;48.53
75387;DHT22;63966;47.914;22.266;2023-07-22T06:26:11;32.16;46.65
75387;DHT22;63966;47.914;22.266;2023-07-22T06:29:14;32.62;46.19
75387;DHT22;63966;47.914;22.266;2023-07-22T06:32:19;32.78;45.54
75387;DHT22;63966;47.914;22.266;2023-07-22T06:35:22;32.82;45.03
75387;DHT22;63966;47.914;22.266;2023-07-22T06:38:26;33.42;44.73
75387;DHT22;63966;47.914;22.266;2023-07-22T06:41:32;33.71;45.64
75387;DHT22;63966;47.914;22.266;2023-07-22T06:44:36;34.05;44.19
75387;DHT22;63966;47.914;22.266;2023-07-22T06:47:39;33.49;44.22
75387;DHT22;63966;47.914;22.266;2023-07-22T06:50:49;33.71;44.84
75387;DHT22;63966;47.914;22.266;2023-07-22T06:53:53;33.51;44.88
75387;DHT22;63966;47.914;22.266;2023-07-22T06:56:57;34.01;43.47
75387;DHT22;63966;47.914;22.266;2023-07-22T07:00:00;34.57;42.93
75387;DHT22;63966;47.914;22.266;2023-07-22T07:03:04;34.73;42.46
75387;DHT22;63966;47.914;22.266;2023-07-22T07:06:07;35.34;41.66
75387;DHT22;63966;47.914;22.266;2023-07-22T07:09:11;34.97;40.78
75387;DHT22;63966;47.914;22.266;2023-07-22T07:12:14;34.82;42.90
75387;DHT22;63966;47.914;22.266;2023-07-22T07:15:18;34.61;42.76
75387;DHT22;63966;47.914;22.266;2023-07-22T07:18:21;34.36;42.63
75387;DHT22;63966;47.914;22.266;2023-07-22T07:21:25;35.06;42.72
75387;DHT22;63966;47.914;22.266;2023-07-22T07:24:30;35.89;39.03
75387;DHT22;63966;47.914;22.266;2023-07-22T07:27:34;36.06;39.55
75387;DHT22;63966;47.914;22.266;2023-07-22T07:30:37;36.21;39.01
75387;DHT22;63966;47.914;22.266;2023-07-22T07:33:41;35.33;40.67
75387;DHT22;63966;47.914;22.266;2023-07-22T07:36:45;36.38;38.41
75387;DHT22;63966;47.914;22.266;2023-07-22T07:39:48;36.47;40.28
75387;DHT22;63966;47.914;22.266;2023-07-22T07:42:52;32.69;43.43
75387;DHT22;63966;47.914;22.266;2023-07-22T07:49:21;34.60;41.37
75387;DHT22;63966;47.914;22.266;2023-07-22T07:52:25;32.25;44.76
75387;DHT22;63966;47.914;22.266;2023-07-22T07:55:28;30.95;48.70
75387;DHT22;63966;47.914;22.266;2023-07-22T07:58:32;29.80;51.57
75387;DHT22;63966;47.914;22.266;2023-07-22T08:01:35;30.67;51.05
75387;DHT22;63966;47.914;22.266;2023-07-22T08:04:40;30.59;49.46
75387;DHT22;63966;47.914;22.266;2023-07-22T08:07:44;29.15;53.27
75387;DHT22;63966;47.914;22.266;2023-07-22T08:10:47;30.98;48.75
75387;DHT22;63966;47.914;22.266;2023-07-22T08:13:51;32.95;45.21
75387;DHT22;63966;47.914;22.266;2023-07-22T08:16:55;34.13;44.95
75387;DHT22;63966;47.914;22.266;2023-07-22T08:19:58;34.01;42.52
75387;DHT22;63966;47.914;22.266;2023-07-22T08:23:02;30.79;48.39
75387;DHT22;63966;47.914;22.266;2023-07-22T08:26:06;31.31;48.35
75387;DHT22;63966;47.914;22.266;2023-07-22T08:29:10;34.05;44.24
75387;DHT22;63966;47.914;22.266;2023-07-22T08:32:14;33.68;43.84
75387;DHT22;63966;47.914;22.266;2023-07-22T08:35:17;31.39;47.97
75387;DHT22;63966;47.914;22.266;2023-07-22T08:38:21;33.36;45.79
75387;DHT22;63966;47.914;22.266;2023-07-22T08:41:28;34.66;41.97
75387;DHT22;63966;47.914;22.266;2023-07-22T08:44:33;30.74;48.32
75387;DHT22;63966;47.914;22.266;2023-07-22T08:47:47;34.28;43.43
75387;DHT22;63966;47.914;22.266;2023-07-22T08:51:04;33.23;45.11
75387;DHT22;63966;47.914;22.266;2023-07-22T08:54:11;32.64;46.09
75387;DHT22;63966;47.914;22.266;2023-07-22T08:57:16;29.42;52.90
75387;DHT22;63966;47.914;22.266;2023-07-22T09:00:22;28.67;54.42
75387;DHT22;63966;47.914;22.266;2023-07-22T09:03:26;27.65;57.28
75387;DHT22;63966;47.914;22.266;2023-07-22T09:06:30;26.84;59.16
75387;DHT22;63966;47.914;22.266;2023-07-22T09:09:35;27.90;58.75
75387;DHT22;63966;47.914;22.266;2023-07-22T09:12:38;28.41;56.80
75387;DHT22;63966;47.914;22.266;2023-07-22T09:15:43;28.72;55.28
75387;DHT22;63966;47.914;22.266;2023-07-22T09:18:48;28.87;56.14
75387;DHT22;63966;47.914;22.266;2023-07-22T09:21:51;28.68;57.79
75387;DHT22;63966;47.914;22.266;2023-07-22T09:25:13;27.69;58.29
75387;DHT22;63966;47.914;22.266;2023-07-22T09:28:19;28.55;58.16
75387;DHT22;63966;47.914;22.266;2023-07-22T09:31:26;28.81;56.17
75387;DHT22;63966;47.914;22.266;2023-07-22T09:34:30;28.43;55.36
75387;DHT22;63966;47.914;22.266;2023-07-22T09:37:38;28.12;58.07
75387;DHT22;63966;47.914;22.266;2023-07-22T09:40:42;28.04;55.84
75387;DHT22;63966;47.914;22.266;2023-07-22T09:43:47;28.25;54.83
75387;DHT22;63966;47.914;22.266;2023-07-22T09:46:51;28.34;58.32
75387;DHT22;63966;47.914;22.266;2023-07-22T09:49:55;28.51;55.87
75387;DHT22;63966;47.914;22.266;2023-07-22T09:52:59;28.87;54.69
75387;DHT22;63966;47.914;22.266;2023-07-22T09:56:05;29.09;56.68
75387;DHT22;63966;47.914;22.266;2023-07-22T09:59:10;28.54;55.05
75387;DHT22;63966;47.914;22.266;2023-07-22T10:02:17;28.45;58.13
75387;DHT22;63966;47.914;22.266;2023-07-22T10:05:22;27.90;59.39
75387;DHT22;63966;47.914;22.266;2023-07-22T10:08:27;27.75;59.00
75387;DHT22;63966;47.914;22.266;2023-07-22T10:11:35;27.27;60.97
75387;DHT22;63966;47.914;22.266;2023-07-22T10:14:38;27.04;58.38
75387;DHT22;63966;47.914;22.266;2023-07-22T10:17:43;28.50;60.43
75387;DHT22;63966;47.914;22.266;2023-07-22T10:20:47;28.30;54.21
75387;DHT22;63966;47.914;22.266;2023-07-22T10:23:51;27.73;55.38
75387;DHT22;63966;47.914;22.266;2023-07-22T10:26:55;27.76;54.36
75387;DHT22;63966;47.914;22.266;2023-07-22T10:30:00;27.83;55.59
75387;DHT22;63966;47.914;22.266;2023-07-22T10:33:04;28.31;55.02
75387;DHT22;63966;47.914;22.266;2023-07-22T10:36:12;28.24;56.25
75387;DHT22;63966;47.914;22.266;2023-07-22T10:39:29;28.68;54.03
75387;DHT22;63966;47.914;22.266;2023-07-22T10:42:33;28.69;54.33
75387;DHT22;63966;47.914;22.266;2023-07-22T10:45:42;28.31;53.54
75387;DHT22;63966;47.914;22.266;2023-07-22T10:48:46;27.65;58.07
75387;DHT22;63966;47.914;22.266;2023-07-22T10:51:51;27.65;56.87
75387;DHT22;63966;47.914;22.266;2023-07-22T10:54:56;27.69;58.15
75387;DHT22;63966;47.914;22.266;2023-07-22T10:58:05;27.67;56.83
75387;DHT22;63966;47.914;22.266;2023-07-22T11:04:33;27.75;61.76
75387;DHT22;63966;47.914;22.266;2023-07-22T11:08:04;27.35;60.73
75387;DHT22;63966;47.914;22.266;2023-07-22T11:11:16;27.62;57.75
75387;DHT22;63966;47.914;22.266;2023-07-22T11:14:22;28.03;59.91
75387;DHT22;63966;47.914;22.266;2023-07-22T11:17:30;28.18;58.27
75387;DHT22;63966;47.914;22.266;2023-07-22T11:20:35;28.54;55.81
75387;DHT22;63966;47.914;22.266;2023-07-22T11:23:39;28.68;54.51
75387;DHT22;63966;47.914;22.266;2023-07-22T11:26:43;28.39;54.19
75387;DHT22;63966;47.914;22.266;2023-07-22T11:29:51;28.87;54.37
75387;DHT22;63966;47.914;22.266;2023-07-22T11:32:58;29.34;52.42
75387;DHT22;63966;47.914;22.266;2023-07-22T11:36:03;29.12;52.29
75387;DHT22;63966;47.914;22.266;2023-07-22T11:39:08;29.06;54.45
75387;DHT22;63966;47.914;22.266;2023-07-22T11:42:12;29.16;54.19
75387;DHT22;63966;47.914;22.266;2023-07-22T11:45:16;28.92;54.53
75387;DHT22;63966;47.914;22.266;2023-07-22T11:48:19;28.60;54.11
75387;DHT22;63966;47.914;22.266;2023-07-22T11:51:26;28.34;54.70
75387;DHT22;63966;47.914;22.266;2023-07-22T11:54:31;28.20;54.39
75387;DHT22;63966;47.914;22.266;2023-07-22T11:57:35;28.50;56.43
75387;DHT22;63966;47.914;22.266;2023-07-22T12:00:42;28.87;54.29
75387;DHT22;63966;47.914;22.266;2023-07-22T12:04:15;28.55;55.56
75387;DHT22;63966;47.914;22.266;2023-07-22T12:07:26;27.73;55.19
75387;DHT22;63966;47.914;22.266;2023-07-22T12:10:30;27.62;58.12
75387;DHT22;63966;47.914;22.266;2023-07-22T12:13:37;28.25;55.88
75387;DHT22;63966;47.914;22.266;2023-07-22T12:16:42;28.02;54.46
75387;DHT22;63966;47.914;22.266;2023-07-22T12:19:53;28.03;57.85
75387;DHT22;63966;47.914;22.266;2023-07-22T12:22:59;27.75;57.65
75387;DHT22;63966;47.914;22.266;2023-07-22T12:26:04;27.92;56.97
75387;DHT22;63966;47.914;22.266;2023-07-22T12:29:08;28.16;56.50
75387;DHT22;63966;47.914;22.266;2023-07-22T12:32:11;28.55;56.12
75387;DHT22;63966;47.914;22.266;2023-07-22T12:35:15;29.09;54.68
75387;DHT22;63966;47.914;22.266;2023-07-22T12:38:19;29.29;54.57
75387;DHT22;63966;47.914;22.266;2023-07-22T12:41:22;29.51;54.25
75387;DHT22;63966;47.914;22.266;2023-07-22T12:44:26;29.47;52.36
75387;DHT22;63966;47.914;22.266;2023-07-22T12:47:29;29.26;51.74
75387;DHT22;63966;47.914;22.266;2023-07-22T12:50:33;28.51;54.93
75387;DHT22;63966;47.914;22.266;2023-07-22T12:53:40;28.09;54.72
75387;DHT22;63966;47.914;22.266;2023-07-22T12:56:44;28.37;55.58
75387;DHT22;63966;47.914;22.266;2023-07-22T12:59:48;28.65;55.43
75387;DHT22;63966;47.914;22.266;2023-07-22T13:02:52;28.69;56.20
75387;DHT22;63966;47.914;22.266;2023-07-22T13:05:56;28.75;55.17
75387;DHT22;63966;47.914;22.266;2023-07-22T13:08:59;28.54;55.41
75387;DHT22;63966;47.914;22.266;2023-07-22T13:12:03;28.57;55.34
75387;DHT22;63966;47.914;22.266;2023-07-22T13:15:11;28.68;56.19
75387;DHT22;63966;47.914;22.266;2023-07-22T13:18:15;28.81;54.35
75387;DHT22;63966;47.914;22.266;2023-07-22T13:21:19;28.69;55.86
75387;DHT22;63966;47.914;22.266;2023-07-22T13:24:23;28.64;58.58
75387;DHT22;63966;47.914;22.266;2023-07-22T13:27:33;28.60;55.96
75387;DHT22;63966;47.914;22.266;2023-07-22T13:30:37;28.30;56.78
75387;DHT22;63966;47.914;22.266;2023-07-22T13:33:40;28.25;57.29
75387;DHT22;63966;47.914;22.266;2023-07-22T13:36:43;28.30;58.36
75387;DHT22;63966;47.914;22.266;2023-07-22T13:39:47;28.13;54.78
75387;DHT22;63966;47.914;22.266;2023-07-22T13:42:50;28.06;55.23
75387;DHT22;63966;47.914;22.266;2023-07-22T13:45:54;28.24;55.19
75387;DHT22;63966;47.914;22.266;2023-07-22T13:48:58;28.18;55.96
75387;DHT22;63966;47.914;22.266;2023-07-22T13:52:02;28.16;53.81
75387;DHT22;63966;47.914;22.266;2023-07-22T13:55:07;28.24;55.83
75387;DHT22;63966;47.914;22.266;2023-07-22T13:58:11;28.31;57.36
75387;DHT22;63966;47.914;22.266;2023-07-22T14:01:14;28.20;55.78
75387;DHT22;63966;47.914;22.266;2023-07-22T14:04:18;28.24;54.88
75387;DHT22;63966;47.914;22.266;2023-07-22T14:07:21;28.07;56.58
75387;DHT22;63966;47.914;22.266;2023-07-22T14:10:25;28.13;55.52
75387;DHT22;63966;47.914;22.266;2023-07-22T14:13:32;27.88;54.76
75387;DHT22;63966;47.914;22.266;2023-07-22T14:16:36;27.42;57.08
75387;DHT22;63966;47.914;22.266;2023-07-22T14:19:39;27.58;57.95
75387;DHT22;63966;47.914;22.266;2023-07-22T14:22:42;27.79;57.38
75387;DHT22;63966;47.914;22.266;2023-07-22T14:25:46;27.96;56.23
75387;DHT22;63966;47.914;22.266;2023-07-22T14:28:50;27.90;53.65
75387;DHT22;63966;47.914;22.266;2023-07-22T14:31:56;27.65;52.28
75387;DHT22;63966;47.914;22.266;2023-07-22T14:35:00;27.46;53.33
75387;DHT22;63966;47.914;22.266;2023-07-22T14:38:04;27.39;54.39
75387;DHT22;63966;47.914;22.266;2023-07-22T14:41:07;27.34;53.53
75387;DHT22;63966;47.914;22.266;2023-07-22T14:44:11;27.35;53.27
75387;DHT22;63966;47.914;22.266;2023-07-22T14:47:14;27.20;54.23
75387;DHT22;63966;47.914;22.266;2023-07-22T14:50:18;27.08;55.26
75387;DHT22;63966;47.914;22.266;2023-07-22T14:53:21;26.93;54.35
75387;DHT22;63966;47.914;22.266;2023-07-22T14:56:25;26.82;56.53
75387;DHT22;63966;47.914;22.266;2023-07-22T14:59:28;26.89;55.56
75387;DHT22;63966;47.914;22.266;2023-07-22T15:02:32;27.11;54.62
75387;DHT22;63966;47.914;22.266;2023-07-22T15:05:39;27.18;53.75
75387;DHT22;63966;47.914;22.266;2023-07-22T15:09:04;27.15;53.59
75387;DHT22;63966;47.914;22.266;2023-07-22T15:12:10;27.01;53.89
75387;DHT22;63966;47.914;22.266;2023-07-22T15:15:13;27.04;55.01
75387;DHT22;63966;47.914;22.266;2023-07-22T15:18:17;27.06;54.91
75387;DHT22;63966;47.914;22.266;2023-07-22T15:21:21;26.98;52.74
75387;DHT22;63966;47.914;22.266;2023-07-22T15:24:24;27.01;53.09
75387;DHT22;63966;47.914;22.266;2023-07-22T15:27:28;26.91;52.93
75387;DHT22;63966;47.914;22.266;2023-07-22T15:30:31;26.83;53.71
75387;DHT22;63966;47.914;22.266;2023-07-22T15:33:35;26.93;54.13
75387;DHT22;63966;47.914;22.266;2023-07-22T15:36:39;26.89;54.46
75387;DHT22;63966;47.914;22.266;2023-07-22T15:39:43;26.89;55.61
75387;DHT22;63966;47.914;22.266;2023-07-22T15:42:47;26.89;54.60
75387;DHT22;63966;47.914;22.266;2023-07-22T15:45:51;26.82;54.67
75387;DHT22;63966;47.914;22.266;2023-07-22T15:48:55;26.76;54.72
75387;DHT22;63966;47.914;22.266;2023-07-22T15:51:59;26.79;54.72
75387;DHT22;63966;47.914;22.266;2023-07-22T15:55:02;26.76;54.37
75387;DHT22;63966;47.914;22.266;2023-07-22T15:58:06;26.64;55.99
75387;DHT22;63966;47.914;22.266;2023-07-22T16:01:09;26.56;56.36
75387;DHT22;63966;47.914;22.266;2023-07-22T16:04:14;26.53;56.06
75387;DHT22;63966;47.914;22.266;2023-07-22T16:07:20;26.50;56.30
75387;DHT22;63966;47.914;22.266;2023-07-22T16:10:24;26.52;56.40
75387;DHT22;63966;47.914;22.266;2023-07-22T16:13:27;26.50;57.70
75387;DHT22;63966;47.914;22.266;2023-07-22T16:16:31;26.46;57.14
75387;DHT22;63966;47.914;22.266;2023-07-22T16:19:36;26.38;58.41
75387;DHT22;63966;47.914;22.266;2023-07-22T16:22:40;26.31;60.16
75387;DHT22;63966;47.914;22.266;2023-07-22T16:25:44;26.31;60.10
75387;DHT22;63966;47.914;22.266;2023-07-22T16:28:48;26.35;58.83
75387;DHT22;63966;47.914;22.266;2023-07-22T16:31:51;26.35;59.48
75387;DHT22;63966;47.914;22.266;2023-07-22T16:34:55;26.24;61.35
75387;DHT22;63966;47.914;22.266;2023-07-22T16:37:59;26.18;59.78
75387;DHT22;63966;47.914;22.266;2023-07-22T16:41:03;26.12;57.59
75387;DHT22;63966;47.914;22.266;2023-07-22T16:44:06;26.00;58.62
75387;DHT22;63966;47.914;22.266;2023-07-22T16:47:09;26.05;60.02
75387;DHT22;63966;47.914;22.266;2023-07-22T16:50:13;25.87;59.90
75387;DHT22;63966;47.914;22.266;2023-07-22T16:53:16;25.74;61.07
75387;DHT22;63966;47.914;22.266;2023-07-22T16:56:19;25.69;60.22
75387;DHT22;63966;47.914;22.266;2023-07-22T16:59:23;25.62;61.11
75387;DHT22;63966;47.914;22.266;2023-07-22T17:02:26;25.53;61.02
75387;DHT22;63966;47.914;22.266;2023-07-22T17:05:32;25.01;63.60
75387;DHT22;63966;47.914;22.266;2023-07-22T17:08:39;24.54;65.53
75387;DHT22;63966;47.914;22.266;2023-07-22T17:11:43;24.19;66.73
75387;DHT22;63966;47.914;22.266;2023-07-22T17:14:47;23.93;67.85
75387;DHT22;63966;47.914;22.266;2023-07-22T17:17:50;23.78;68.39
75387;DHT22;63966;47.914;22.266;2023-07-22T17:20:54;23.53;68.98
75387;DHT22;63966;47.914;22.266;2023-07-22T17:23:58;23.41;69.03
75387;DHT22;63966;47.914;22.266;2023-07-22T17:27:01;23.30;69.35
75387;DHT22;63966;47.914;22.266;2023-07-22T17:30:05;23.23;69.32
75387;DHT22;63966;47.914;22.266;2023-07-22T17:33:09;23.11;70.05
75387;DHT22;63966;47.914;22.266;2023-07-22T17:36:12;23.00;70.48
75387;DHT22;63966;47.914;22.266;2023-07-22T17:39:16;22.93;70.62
75387;DHT22;63966;47.914;22.266;2023-07-22T17:42:19;22.79;70.77
75387;DHT22;63966;47.914;22.266;2023-07-22T17:45:23;22.69;71.94
75387;DHT22;63966;47.914;22.266;2023-07-22T17:48:27;22.62;72.55
75387;DHT22;63966;47.914;22.266;2023-07-22T17:51:31;22.47;73.78
75387;DHT22;63966;47.914;22.266;2023-07-22T17:54:35;22.34;74.86
75387;DHT22;63966;47.914;22.266;2023-07-22T17:57:40;22.18;75.09
75387;DHT22;63966;47.914;22.266;2023-07-22T18:00:46;22.11;75.10
75387;DHT22;63966;47.914;22.266;2023-07-22T18:03:50;22.01;75.94
75387;DHT22;63966;47.914;22.266;2023-07-22T18:06:54;21.91;76.13
75387;DHT22;63966;47.914;22.266;2023-07-22T18:09:58;21.73;76.79
75387;DHT22;63966;47.914;22.266;2023-07-22T18:13:01;21.67;76.89
75387;DHT22;63966;47.914;22.266;2023-07-22T18:16:05;21.59;77.29
75387;DHT22;63966;47.914;22.266;2023-07-22T18:19:09;21.46;77.25
75387;DHT22;63966;47.914;22.266;2023-07-22T18:22:13;21.39;77.79
75387;DHT22;63966;47.914;22.266;2023-07-22T18:25:16;21.35;78.06
75387;DHT22;63966;47.914;22.266;2023-07-22T18:28:20;21.24;78.63
75387;DHT22;63966;47.914;22.266;2023-07-22T18:31:23;21.18;78.91
75387;DHT22;63966;47.914;22.266;2023-07-22T18:34:28;21.08;79.46
75387;DHT22;63966;47.914;22.266;2023-07-22T18:37:32;20.99;79.75
75387;DHT22;63966;47.914;22.266;2023-07-22T18:40:35;20.83;80.34
75387;DHT22;63966;47.914;22.266;2023-07-22T18:43:39;20.83;80.85
75387;DHT22;63966;47.914;22.266;2023-07-22T18:46:42;20.70;81.62
75387;DHT22;63966;47.914;22.266;2023-07-22T18:49:46;20.54;82.64
75387;DHT22;63966;47.914;22.266;2023-07-22T18:52:50;20.44;82.08
75387;DHT22;63966;47.914;22.266;2023-07-22T18:55:54;20.50;81.76
75387;DHT22;63966;47.914;22.266;2023-07-22T18:58:57;20.50;81.78
75387;DHT22;63966;47.914;22.266;2023-07-22T19:02:01;20.49;82.15
75387;DHT22;63966;47.914;22.266;2023-07-22T19:05:05;20.51;81.89
75387;DHT22;63966;47.914;22.266;2023-07-22T19:08:08;20.41;82.13
75387;DHT22;63966;47.914;22.266;2023-07-22T19:11:11;20.30;82.67
75387;DHT22;63966;47.914;22.266;2023-07-22T19:14:15;20.23;83.02